Terminal Aerodrome Forecast
Issued by NWS Blacksburg, VA

Home | Current Version | Previous Version | Text Only | Print | Product List | Glossary On
Versions: 1 2 3 4 5 6 7 8 9 10 11 12 13 14 15 16 17 18
000
FTUS41 KRNK 250520
TAFDAN
TAF
KDAN 250520Z 2506/2606 VRB03KT P6SM SKC
      TEMPO 2508/2512 5SM BR
     FM251500 23007KT P6SM SCT050 SCT120
     FM260200 VRB03KT P6SM SCT050 BKN120=

USA.gov is the U.S. government's official web portal to all federal, state and local government web resources and services.